東京国際空港の過去48時間の天気

東京国際空港 (Tokyo/Intl)

現在時刻: 6/19 14:59 JST (6/19 05:59 UTC) 以下の時間は現地時間です。

過去48時間のMETAR気象情報
時間 風向 風速(m/s) 視程 気温(℃) 湿度(%) 気圧(hPa) 天気現象
19 14:30 9 10km以上 27 62 1004
19 14:00 9 10km以上 27 62 1004
19 13:30 8 10km以上 27 58 1005
19 13:00 8 10km以上 27 58 1005
19 12:30 7 10km以上 27 54 1005
19 12:00 6 10km以上 26 65 1006
19 11:30 南南東 6 10km以上 26 65 1006
19 11:00 南南東 5 10km以上 25 74 1007
19 10:30 南南東 5 10km以上 24 74 1007
19 10:00 南南東 4 10km以上 25 69 1007
19 09:30 南南東 4 10km以上 23 78 1008
19 09:00 南南東 4 10km以上 24 69 1008
19 08:30 東南東 2 10km以上 24 74 1008
19 08:00 北東 2 10km以上 23 78 1008
19 07:30 不定 1 10km以上 23 73 1008
19 07:00 西 3 10km以上 23 78 1008
19 06:30 西 3 10km以上 22 78 1008
19 06:00 西 3 10km以上 22 83 1008
19 05:30 西 3 10km以上 21 83 1009
19 05:00 西北西 3 10km以上 20 88 1008
19 04:30 西 3 10km以上 20 83 1009
19 04:00 西 3 10km以上 21 78 1008
19 03:30 西 4 10km以上 21 78 1008
19 03:00 西 4 10km以上 21 78 1008
19 02:30 南西 3 10km以上 22 73 1008
19 02:00 南南西 5 10km以上 22 73 1008
19 01:30 南南西 4 10km以上 22 78 1009
19 01:00 南南西 5 10km以上 22 78 1009
19 00:30 5 10km以上 22 78 1009
19 00:00 6 10km以上 22 78 1009
18 23:30 5 10km以上 22 78 1009
18 23:00 5 10km以上 22 78 1010
18 22:30 6 10km以上 22 83 1010
18 22:00 6 10km以上 22 83 1010
18 20:30 7 10km以上 23 78 1010
18 20:00 7 10km以上 23 78 1009
18 19:30 7 10km以上 23 73 1009
18 17:30 南南西 7 10km以上 25 65 1009
18 17:00 7 10km以上 25 57 1009
18 16:30 南南西 7 10km以上 26 61 1009
18 16:00 南南西 6 10km以上 26 58 1009
18 15:30 7 10km以上 26 61 1009
18 15:00 7 10km以上 26 61 1010
18 14:30 6 10km以上 26 61 1010
18 14:00 6 10km以上 26 65 1010
18 13:30 南南東 4 10km以上 27 62 1010
18 13:00 南南東 5 10km以上 27 62 1010
18 12:30 南東 3 10km以上 25 65 1011
18 12:00 不定 2 10km以上 25 65 1011
18 11:30 3 10km以上 25 65 1011
18 11:00 東北東 3 10km以上 25 69 1012
18 10:30 4 10km以上 24 74 1012
18 10:00 3 10km以上 24 78 1012
18 09:30 3 10km以上 23 78 1012
18 09:00 東南東 3 10km以上 23 78 1013
18 08:30 2 10km以上 23 78 1013
18 08:00 東北東 3 10km以上 22 78 1013
18 07:30 東北東 2 10km以上 22 78 1013
18 07:00 東北東 2 10km以上 22 78 1013
18 06:30 2 10km以上 21 83 1013
18 06:00 3 10km以上 21 78 1013
18 05:30 2 10km以上 21 83 1013
17 22:00 南東 3 10km以上 22 78 1013
17 21:30 4 10km以上 23 61 1012
17 21:00 4 10km以上 23 61 1012
17 20:30 5 10km以上 24 57 1012
17 20:00 7 10km以上 24 57 1011
17 19:00 南南西 8 10km以上 25 61 1010
17 18:30 6 10km以上 25 57 1010
17 18:00 南南西 7 10km以上 26 51 1009
17 17:30 6 10km以上 26 45 1009
17 17:00 南南東 3 10km以上 27 39 1008
17 16:30 3 10km以上 27 37 1008
17 16:00 4 10km以上 26 45 1008
17 15:30 4 10km以上 26 48 1008
17 15:00 4 10km以上 27 45 1008
RJTT 190530Z 18017KT 9999 FEW030 27/19 Q1004 NOSIG RMK 1CU030 A2967
RJTT 190500Z 18017KT 9999 FEW030 27/19 Q1004 NOSIG RMK 1CU030 A2967
RJTT 190430Z 18016KT 9999 FEW030 27/18 Q1005 NOSIG RMK 1CU030 A2969
RJTT 190400Z 18015KT 9999 FEW030 27/18 Q1005 NOSIG RMK 1CU030 A2969
RJTT 190330Z 18014KT 9999 FEW030 27/17 Q1005 NOSIG RMK 1CU030 A2970
RJTT 190300Z 18012KT 9999 FEW030 SCT/// 26/19 Q1006 NOSIG RMK 1CU030 A2972
RJTT 190230Z 16012KT 9999 FEW030 SCT/// 26/19 Q1006 NOSIG
RJTT 190200Z 16009KT 9999 FEW020 SCT/// 25/20 Q1007 NOSIG RMK 1CU020 A2974
RJTT 190130Z 15009KT 9999 FEW020 24/19 Q1007 NOSIG RMK 1CU020 A2975
RJTT 190100Z 15008KT 110V200 9999 FEW020 SCT030 25/19 Q1007 NOSIG RMK 1CU020 3CU030 A2976
RJTT 190030Z 16008KT 9999 FEW020 BKN030 23/19 Q1008 NOSIG RMK 1CU020 6CU030 A2977
RJTT 190000Z 15008KT 120V200 9999 FEW020 BKN025 BKN/// 24/18 Q1008 NOSIG RMK 1CU020 5CU025 A2977
RJTT 182330Z 11004KT 030V200 9999 FEW020 SCT025 BKN/// 24/19 Q1008 NOSIG
RJTT 182300Z 05003KT 9999 FEW020 BKN/// 23/19 Q1008 BECMG 10006KT RMK 2CU020 A2978
RJTT 182230Z VRB02KT 9999 FEW020 BKN/// 23/18 Q1008 NOSIG RMK 1CU020 A2978
RJTT 182200Z 28006KT 230V320 9999 FEW020 BKN/// 23/19 Q1008 NOSIG RMK 1CU020 A2979
RJTT 182130Z 27006KT 9999 FEW020 BKN/// 22/18 Q1008 NOSIG RMK 1CU020 A2979
RJTT 182100Z 27006KT 9999 FEW020 BKN/// 22/19 Q1008 NOSIG RMK 1CU020 A2979
RJTT 182030Z 27005KT 9999 FEW030 BKN/// 21/18 Q1009 NOSIG
RJTT 182000Z 29006KT 9999 FEW030 BKN/// 20/18 Q1008 NOSIG RMK 1CU030 A2979
RJTT 181930Z 28006KT 9999 FEW030 SCT/// 20/17 Q1009 NOSIG RMK 1CU030 A2979
RJTT 181900Z 27006KT 9999 FEW030 BKN/// 21/17 Q1008 NOSIG RMK 1CU030 A2979
RJTT 181830Z 26007KT 9999 FEW030 BKN/// 21/17 Q1008 NOSIG
RJTT 181800Z 26007KT 9999 FEW030 BKN/// 21/17 Q1008 NOSIG RMK 1CU030 A2979
RJTT 181730Z 23006KT 190V270 9999 FEW030 BKN/// 22/17 Q1008 BECMG 26005KT RMK 1CU030 A2979
RJTT 181700Z 20009KT 9999 FEW030 BKN/// 22/17 Q1008 NOSIG RMK 1CU030 A2979
RJTT 181630Z 20008KT 9999 FEW030 BKN/// 22/18 Q1009 NOSIG
RJTT 181600Z 20010KT 9999 FEW030 BKN/// 22/18 Q1009 NOSIG RMK 1CU030 A2980
RJTT 181530Z 19010KT 9999 FEW030 BKN/// 22/18 Q1009 NOSIG RMK 1CU030 A2981
RJTT 181500Z 18011KT 9999 FEW030 BKN/// 22/18 Q1009 NOSIG RMK 1CU030 A2981
RJTT 181430Z 18010KT 9999 FEW030 SCT/// 22/18 Q1009 NOSIG RMK 1CU030 A2982
RJTT 181400Z 18010KT 9999 FEW030 SCT/// 22/18 Q1010 NOSIG RMK 1CU030 A2982
RJTT 181330Z 19011KT 9999 FEW030 SCT/// 22/19 Q1010 NOSIG RMK 1CU030 A2983
RJTT 181300Z 18011KT 9999 FEW030 BKN/// 22/19 Q1010 NOSIG RMK 1CU030 A2982
RJTT 181130Z 19013KT 9999 FEW030 BKN/// 23/19 Q1010 NOSIG
RJTT 181100Z 19013KT 9999 FEW030 BKN/// 23/19 Q1009 NOSIG
RJTT 181030Z 19014KT 9999 FEW030 BKN/// 23/18 Q1009 NOSIG
RJTT 180830Z 20014KT 9999 FEW030 BKN/// 25/18 Q1009 NOSIG RMK 1CU030 A2982
RJTT 180800Z 19013KT 9999 FEW030 BKN/// 25/16 Q1009 NOSIG RMK 1CU030 A2982
RJTT 180730Z 20013KT 9999 FEW030 SCT200 BKN/// 26/18 Q1009 NOSIG RMK 1CU030 3AC200 A2982
RJTT 180700Z 20012KT 9999 FEW030 OVC/// 26/17 Q1009 NOSIG RMK 1CU030 A2982
RJTT 180630Z 19013KT 9999 FEW030 OVC/// 26/18 Q1009 NOSIG
RJTT 180600Z 19013KT 9999 FEW030 OVC/// 26/18 Q1010 NOSIG RMK 1CU030 A2982
RJTT 180530Z 19011KT 9999 FEW030 OVC/// 26/18 Q1010 NOSIG
RJTT 180500Z 19012KT 9999 FEW030 OVC/// 26/19 Q1010 NOSIG RMK 1CU030 A2983
RJTT 180430Z 16008KT 120V190 9999 FEW030 BKN/// 27/19 Q1010 NOSIG RMK 1CU030 A2984
RJTT 180400Z 15009KT 110V190 9999 FEW035 BKN/// 27/19 Q1010 NOSIG RMK 1CU035 A2985
RJTT 180330Z 14006KT 090V200 9999 FEW030 BKN/// 25/18 Q1011 NOSIG
RJTT 180300Z VRB04KT 9999 FEW025 SCT/// 25/18 Q1011 NOSIG RMK 1CU025 A2986 LGT TO MOD TURB OBS AT 0250Z 10NM NE CREAM BTN 10000FT AND 4000FT IN DES BY B738
RJTT 180230Z 08006KT 9999 FEW025 SCT/// 25/18 Q1011 NOSIG RMK 1CU025 A2987
RJTT 180200Z 07006KT 9999 FEW020 SCT/// 25/19 Q1012 NOSIG RMK 1CU020 A2989
RJTT 180130Z 08007KT 9999 FEW020 SCT/// 24/19 Q1012 NOSIG
RJTT 180100Z 08005KT 9999 FEW015 SCT/// 24/20 Q1012 NOSIG RMK 1CU015 A2990
RJTT 180030Z 08005KT 9999 FEW015 23/19 Q1012 NOSIG RMK 1CU015 A2990
RJTT 180000Z 11006KT 070V130 9999 FEW015 23/19 Q1013 NOSIG RMK 1CU015 A2991
RJTT 172330Z 08004KT 9999 FEW015 23/19 Q1013 NOSIG RMK 1CU015 A2992
RJTT 172300Z 06005KT 9999 FEW020 BKN/// 22/18 Q1013 BECMG 10005KT RMK 1CU020 A2993
RJTT 172230Z 07004KT 9999 FEW015 SCT030 BKN/// 22/18 Q1013 NOSIG RMK 1CU015 3CU030 A2994
RJTT 172200Z 06003KT 9999 FEW020 22/18 Q1013 BECMG 10005KT
RJTT 172130Z 09004KT 9999 FEW020 SCT070 21/18 Q1013 NOSIG RMK 1CU020 3AC070 A2993
RJTT 172100Z 10005KT 9999 FEW020 SCT070 21/17 Q1013 NOSIG RMK 1CU020 3AC070 A2992
RJTT 172030Z 10004KT 9999 FEW015 21/18 Q1013 NOSIG RMK 1CU015 A2993
RJTT 171300Z 13005KT 9999 FEW030 BKN100 22/18 Q1013 NOSIG RMK 1CU030 6AC100 A2991
RJTT 171230Z 18007KT 9999 FEW030 SCT090 BKN110 23/15 Q1012 NOSIG RMK 1CU030 3AC090 6AC110 A2990
RJTT 171200Z 18008KT 9999 FEW030 SCT080 BKN100 23/15 Q1012 NOSIG RMK 1CU030 3AC080 6AC100 A2989
RJTT 171130Z 19009KT 9999 FEW030 BKN080 24/15 Q1012 NOSIG RMK 1CU030 6AC080 A2989
RJTT 171100Z 19013KT 9999 FEW030 SCT080 BKN100 24/15 Q1011 NOSIG RMK 1CU030 3AC080 6AC100 A2987
RJTT 171000Z 20015KT 9999 FEW030 SCT080 BKN/// 25/17 Q1010 NOSIG RMK 1CU030 4AC080 A2983
RJTT 170930Z 19011KT 9999 FEW030 BKN080 BKN/// 25/16 Q1010 NOSIG
RJTT 170900Z 20013KT 9999 FEW030 BKN070 BKN/// 26/15 Q1009 NOSIG RMK 1CU030 6AC070 A2981
RJTT 170830Z 18011KT 9999 FEW030 BKN070 BKN/// 26/13 Q1009 NOSIG
RJTT 170800Z 15006KT 120V200 9999 FEW030 SCT070 BKN/// 27/12 Q1008 NOSIG RMK 1CU030 4AC070 A2978
RJTT 170730Z 36005KT 320V030 9999 FEW030 SCT080 BKN/// 27/11 Q1008 BECMG 17010KT
RJTT 170700Z 36007KT 9999 FEW030 SCT080 BKN/// 26/13 Q1008 BECMG 18010KT RMK 1CU030 4AC080 A2978
RJTT 170630Z 01007KT 9999 FEW030 SCT080 BKN/// 26/14 Q1008 BECMG 18010KT RMK 1CU030 4AC080 A2978
RJTT 170600Z 01008KT 9999 FEW030 SCT080 BKN/// 27/14 Q1008 WS R34L BECMG 18010KT RMK 1CU030 3AC080 A2977